Terminal Aerodrome Forecast
Issued by NWS

Home | Current Version | Previous Version | Graphics & Text | Print | Product List | Glossary On
Versions: 1 2 3 4 5 6 7 8 9 10 11 12 13 14 15
860
FTUS43 KMPX 241726
TAFRNH
TAF
KRNH 241726Z 2418/2518 01013G20KT P6SM SCT060 BKN090
     FM250200 02007KT P6SM FEW080=

USA.gov is the U.S. government's official web portal to all federal, state and local government web resources and services.